createdAt,value
2019-05-19T00:02:25.788Z,50.80
2019-05-19T00:04:55.092Z,50.80
2019-05-19T00:07:24.490Z,50.80
2019-05-19T00:09:54.670Z,50.80
2019-05-19T00:12:24.220Z,50.80
2019-05-19T00:14:53.214Z,50.80
2019-05-19T00:17:22.512Z,50.80
2019-05-19T00:19:51.506Z,50.90
2019-05-19T00:22:20.394Z,50.80
2019-05-19T00:24:49.285Z,50.80
2019-05-19T00:27:19.104Z,50.80
2019-05-19T00:29:48.092Z,50.80
2019-05-19T00:32:17.191Z,50.80
2019-05-19T00:34:46.080Z,50.80
2019-05-19T00:37:15.070Z,50.80
2019-05-19T00:39:44.065Z,50.80
2019-05-19T00:42:13.059Z,50.80
2019-05-19T00:44:42.052Z,50.90
2019-05-19T00:47:11.350Z,50.80
2019-05-19T00:49:41.845Z,50.90
2019-05-19T00:52:10.874Z,50.90
2019-05-19T00:54:39.867Z,51.00
2019-05-19T00:57:08.961Z,50.90
2019-05-19T00:59:38.160Z,51.00
2019-05-19T01:02:09.305Z,50.90
2019-05-19T01:04:38.402Z,50.90
2019-05-19T01:07:08.215Z,51.00
2019-05-19T01:09:37.520Z,51.00
2019-05-19T01:12:06.509Z,51.00
2019-05-19T01:14:35.504Z,51.10
2019-05-19T01:17:05.513Z,51.00
2019-05-19T01:19:34.712Z,51.10
2019-05-19T01:22:03.709Z,51.10
2019-05-19T01:24:32.705Z,51.10
2019-05-19T01:27:01.691Z,51.20
2019-05-19T01:29:30.684Z,51.20
2019-05-19T01:31:59.987Z,51.20
2019-05-19T01:34:28.979Z,51.20
2019-05-19T01:36:58.388Z,51.20
2019-05-19T01:39:27.590Z,51.30
2019-05-19T01:41:56.572Z,51.30
2019-05-19T01:44:25.565Z,51.30
2019-05-19T01:46:54.762Z,51.40
2019-05-19T01:49:24.168Z,51.30
2019-05-19T01:51:53.470Z,51.40
2019-05-19T01:54:22.734Z,51.90
2019-05-19T01:56:52.172Z,51.40
2019-05-19T01:59:21.061Z,51.40
2019-05-19T02:01:50.064Z,51.30
2019-05-19T02:04:19.046Z,51.40
2019-05-19T02:06:48.038Z,51.40
2019-05-19T02:09:16.930Z,51.40
2019-05-19T02:11:46.027Z,51.50
2019-05-19T02:14:15.019Z,51.50
2019-05-19T02:16:44.012Z,51.50
2019-05-19T02:19:13.005Z,51.50
2019-05-19T02:21:41.999Z,51.60
2019-05-19T02:24:10.991Z,51.60
2019-05-19T02:26:39.989Z,51.60
2019-05-19T02:29:08.977Z,51.60
2019-05-19T02:31:37.971Z,51.60
2019-05-19T02:34:06.965Z,51.70
2019-05-19T02:36:36.276Z,51.60
2019-05-19T02:39:06.795Z,51.60
2019-05-19T02:41:35.785Z,52.20
2019-05-19T02:44:05.094Z,51.60
2019-05-19T02:46:34.092Z,51.70
2019-05-19T02:49:03.074Z,51.60
2019-05-19T02:51:32.477Z,51.60
2019-05-19T02:54:01.678Z,51.70
2019-05-19T02:56:31.287Z,51.60
2019-05-19T02:59:00.891Z,51.70
2019-05-19T03:01:29.890Z,51.60
2019-05-19T03:03:58.876Z,51.60
2019-05-19T03:06:27.971Z,51.60
2019-05-19T03:08:57.742Z,51.60
2019-05-19T03:11:28.315Z,51.60
2019-05-19T03:13:57.310Z,51.50
2019-05-19T03:16:27.322Z,51.50
2019-05-19T03:18:56.834Z,51.50
2019-05-19T03:21:26.139Z,51.50
2019-05-19T03:23:55.126Z,51.40
2019-05-19T03:26:24.530Z,51.40
2019-05-19T03:28:54.035Z,51.40
2019-05-19T03:31:24.908Z,51.40
2019-05-19T03:33:56.641Z,51.30
2019-05-19T03:36:25.933Z,51.30
2019-05-19T03:38:55.226Z,51.30
2019-05-19T03:41:24.935Z,51.30
2019-05-19T03:43:54.443Z,51.30
2019-05-19T03:46:23.345Z,51.20
2019-05-19T03:48:52.555Z,51.20
2019-05-19T03:51:31.110Z,51.20
2019-05-19T03:53:52.356Z,51.10
2019-05-19T03:56:21.255Z,51.10
2019-05-19T03:58:50.241Z,51.10
2019-05-19T04:01:19.236Z,51.10
2019-05-19T04:03:48.232Z,51.10
2019-05-19T04:06:18.141Z,51.10
2019-05-19T04:08:47.134Z,51.10
2019-05-19T04:11:16.128Z,51.10
2019-05-19T04:13:45.234Z,51.10
2019-05-19T04:16:14.431Z,51.00
2019-05-19T04:18:43.416Z,51.00
2019-05-19T04:21:13.330Z,51.00
2019-05-19T04:23:42.330Z,51.00
2019-05-19T04:26:12.238Z,50.90
2019-05-19T04:28:41.230Z,50.90
2019-05-19T04:31:10.222Z,50.90
2019-05-19T04:33:39.217Z,50.90
2019-05-19T04:36:08.211Z,50.90
2019-05-19T04:38:37.304Z,50.90
2019-05-19T04:41:06.197Z,50.90
2019-05-19T04:43:35.194Z,50.90
2019-05-19T04:46:04.182Z,50.90
2019-05-19T04:48:33.071Z,50.90
2019-05-19T04:51:03.118Z,50.90
2019-05-19T04:53:32.189Z,51.00
2019-05-19T04:56:01.077Z,51.00
2019-05-19T04:58:30.072Z,51.00
2019-05-19T05:00:59.062Z,51.00
2019-05-19T05:03:28.157Z,51.00
2019-05-19T05:05:57.049Z,51.10
2019-05-19T05:08:30.272Z,51.10
2019-05-19T05:10:57.187Z,51.10
2019-05-19T05:13:26.591Z,51.10
2019-05-19T05:15:55.580Z,51.10
2019-05-19T05:18:24.791Z,51.10
2019-05-19T05:20:54.080Z,51.20
2019-05-19T05:23:23.994Z,51.20
2019-05-19T05:25:53.044Z,51.20
2019-05-19T05:28:22.861Z,51.30
2019-05-19T05:30:52.308Z,51.30
2019-05-19T05:33:22.533Z,51.40
2019-05-19T05:35:51.423Z,51.40
2019-05-19T05:38:20.418Z,51.40
2019-05-19T05:40:49.413Z,51.40
2019-05-19T05:43:18.395Z,51.40
2019-05-19T05:45:48.007Z,52.10
2019-05-19T05:48:18.842Z,51.60
2019-05-19T05:50:48.758Z,51.60
2019-05-19T05:53:17.748Z,51.60
2019-05-19T05:55:46.742Z,51.60
2019-05-19T05:58:16.041Z,51.70
2019-05-19T06:00:45.344Z,51.70
2019-05-19T06:03:14.334Z,51.70
2019-05-19T06:05:43.635Z,51.70
2019-05-19T06:08:12.935Z,51.70
2019-05-19T06:10:41.929Z,51.70
2019-05-19T06:13:10.921Z,51.80
2019-05-19T06:15:39.917Z,51.80
2019-05-19T06:18:09.216Z,51.80
2019-05-19T06:20:38.208Z,51.80
2019-05-19T06:23:07.510Z,51.80
2019-05-19T06:25:36.528Z,51.80
2019-05-19T06:28:05.494Z,51.80
2019-05-19T06:30:34.488Z,51.80
2019-05-19T06:33:03.994Z,51.90
2019-05-19T06:35:33.090Z,51.90
2019-05-19T06:38:02.524Z,51.90
2019-05-19T06:40:32.008Z,52.00
2019-05-19T06:43:00.991Z,52.00
2019-05-19T06:45:30.409Z,52.00
2019-05-19T06:47:59.591Z,51.90
2019-05-19T06:50:28.585Z,52.00
2019-05-19T06:53:12.923Z,52.00
2019-05-19T06:55:29.042Z,52.00
2019-05-19T06:57:58.023Z,52.00
2019-05-19T07:00:27.017Z,52.00
2019-05-19T07:02:56.314Z,52.00
2019-05-19T07:05:26.025Z,52.00
2019-05-19T07:07:55.836Z,52.00
2019-05-19T07:10:25.137Z,52.00
2019-05-19T07:12:54.438Z,52.10
2019-05-19T07:15:23.738Z,52.10
2019-05-19T07:17:53.058Z,52.10
2019-05-19T07:20:22.340Z,52.10
2019-05-19T07:22:51.641Z,52.20
2019-05-19T07:25:20.733Z,52.20
2019-05-19T07:27:49.945Z,52.20
2019-05-19T07:30:19.459Z,52.20
2019-05-19T07:32:48.534Z,52.20
2019-05-19T07:35:17.524Z,52.30
2019-05-19T07:37:46.620Z,52.30
2019-05-19T07:40:15.822Z,52.40
2019-05-19T07:42:45.248Z,52.40
2019-05-19T07:45:15.154Z,52.40
2019-05-19T07:47:44.231Z,52.40
2019-05-19T07:50:13.121Z,52.50
2019-05-19T07:52:42.024Z,52.50
2019-05-19T07:55:10.908Z,52.50
2019-05-19T07:57:39.691Z,52.50
2019-05-19T08:00:09.560Z,52.50
2019-05-19T08:02:38.981Z,52.50
2019-05-19T08:05:08.212Z,52.50
2019-05-19T08:07:37.695Z,52.50
2019-05-19T08:10:07.217Z,52.50
2019-05-19T08:12:36.110Z,52.50
2019-05-19T08:15:07.051Z,52.50
2019-05-19T08:17:36.247Z,52.70
2019-05-19T08:20:07.081Z,52.70
2019-05-19T08:22:36.075Z,52.70
2019-05-19T08:25:07.842Z,52.70
2019-05-19T08:27:37.132Z,52.80
2019-05-19T08:30:06.842Z,52.80
2019-05-19T08:32:36.963Z,52.90
2019-05-19T08:35:07.183Z,53.10
2019-05-19T08:37:36.289Z,53.60
2019-05-19T08:40:05.178Z,53.70
2019-05-19T08:42:34.164Z,54.00
2019-05-19T08:45:03.773Z,64.70
2019-05-19T08:47:32.765Z,60.30
2019-05-19T08:50:01.800Z,60.10
2019-05-19T08:52:31.066Z,60.40
2019-05-19T08:55:00.050Z,60.00
2019-05-19T08:57:29.046Z,59.80
2019-05-19T08:59:58.138Z,59.30
2019-05-19T09:02:27.030Z,59.40
2019-05-19T09:04:56.334Z,59.10
2019-05-19T09:07:25.732Z,58.90
2019-05-19T09:09:56.249Z,58.60
2019-05-19T09:12:25.767Z,58.50
2019-05-19T09:14:55.069Z,58.30
2019-05-19T09:17:25.085Z,57.90
2019-05-19T09:19:54.284Z,57.90
2019-05-19T09:22:23.591Z,57.70
2019-05-19T09:24:52.490Z,57.70
2019-05-19T09:27:21.364Z,57.40
2019-05-19T09:29:50.255Z,57.40
2019-05-19T09:32:19.658Z,57.10
2019-05-19T09:34:48.548Z,57.00
2019-05-19T09:37:17.542Z,57.00
2019-05-19T09:39:46.535Z,56.90
2019-05-19T09:42:15.543Z,56.90
2019-05-19T09:44:44.650Z,56.90
2019-05-19T09:47:13.517Z,56.60
2019-05-19T09:49:42.510Z,56.70
2019-05-19T09:52:16.406Z,56.60
2019-05-19T09:54:45.161Z,56.50
2019-05-19T09:57:12.873Z,56.40
2019-05-19T09:59:43.088Z,56.20
2019-05-19T10:02:12.089Z,56.20
2019-05-19T10:04:41.090Z,56.10
2019-05-19T10:07:10.203Z,56.10
2019-05-19T10:09:50.271Z,56.00
2019-05-19T10:12:19.426Z,56.00
2019-05-19T10:14:48.419Z,55.90
2019-05-19T10:17:17.417Z,55.80
2019-05-19T10:19:46.706Z,55.80
2019-05-19T10:22:15.706Z,55.70
2019-05-19T10:24:59.376Z,55.60
2019-05-19T10:27:15.223Z,55.40
2019-05-19T10:29:44.220Z,55.40
2019-05-19T10:32:13.218Z,55.40
2019-05-19T10:34:42.510Z,55.30
2019-05-19T10:37:11.809Z,55.10
2019-05-19T10:39:40.807Z,55.30
2019-05-19T10:42:10.106Z,55.20
2019-05-19T10:44:39.198Z,55.20
2019-05-19T10:47:08.418Z,55.10
2019-05-19T10:49:42.530Z,55.10
2019-05-19T10:52:10.070Z,55.10
2019-05-19T10:54:39.062Z,55.00
2019-05-19T10:57:08.363Z,54.80
2019-05-19T10:59:37.388Z,54.80
2019-05-19T11:02:07.577Z,54.90
2019-05-19T11:04:36.579Z,54.80
2019-05-19T11:07:05.568Z,54.70
2019-05-19T11:09:34.560Z,54.80
2019-05-19T11:12:04.574Z,54.50
2019-05-19T11:14:33.464Z,54.50
2019-05-19T11:17:02.457Z,54.30
2019-05-19T11:19:31.454Z,54.40
2019-05-19T11:22:01.365Z,54.40
2019-05-19T11:24:30.359Z,54.40
2019-05-19T11:26:59.662Z,54.30
2019-05-19T11:29:30.496Z,54.40
2019-05-19T11:31:59.488Z,54.40
2019-05-19T11:34:28.482Z,54.30
2019-05-19T11:36:57.474Z,54.30
2019-05-19T11:39:26.876Z,54.30
2019-05-19T11:41:56.691Z,54.20
2019-05-19T11:44:26.302Z,54.10
2019-05-19T11:46:56.007Z,54.10
2019-05-19T11:49:25.212Z,54.00
2019-05-19T11:51:54.822Z,54.00
2019-05-19T11:54:24.420Z,54.00
2019-05-19T11:56:53.722Z,54.00
2019-05-19T11:59:23.432Z,53.80
2019-05-19T12:01:52.985Z,53.80
2019-05-19T12:04:22.246Z,53.80
2019-05-19T12:06:51.241Z,53.90
2019-05-19T12:09:20.333Z,53.80
2019-05-19T12:11:49.316Z,53.90
2019-05-19T12:14:18.209Z,53.80
2019-05-19T12:16:47.313Z,53.90
2019-05-19T12:19:16.195Z,53.80
2019-05-19T12:21:45.190Z,53.70
2019-05-19T12:24:14.185Z,53.70
2019-05-19T12:26:43.176Z,53.50
2019-05-19T12:29:12.172Z,53.50
2019-05-19T12:31:41.169Z,53.50
2019-05-19T12:34:10.051Z,53.40
2019-05-19T12:36:38.950Z,53.40
2019-05-19T12:39:07.891Z,53.50
2019-05-19T12:41:37.134Z,53.10
2019-05-19T12:44:07.355Z,53.10
2019-05-19T12:46:37.268Z,52.80
2019-05-19T12:49:06.263Z,53.00
2019-05-19T12:51:35.259Z,52.60
2019-05-19T12:54:05.480Z,52.50
2019-05-19T12:56:39.491Z,52.30
2019-05-19T12:59:05.310Z,52.30
2019-05-19T13:01:34.301Z,52.30
2019-05-19T13:04:05.531Z,52.20
2019-05-19T13:06:35.123Z,52.40
2019-05-19T13:09:08.258Z,52.70
2019-05-19T13:11:37.402Z,52.50
2019-05-19T13:14:06.641Z,52.70
2019-05-19T13:16:35.631Z,52.70
2019-05-19T13:19:05.346Z,52.60
2019-05-19T13:21:35.154Z,52.70
2019-05-19T13:24:04.457Z,52.50
2019-05-19T13:26:33.447Z,52.40
2019-05-19T13:29:02.748Z,52.50
2019-05-19T13:31:32.055Z,52.10
2019-05-19T13:34:01.348Z,51.80
2019-05-19T13:36:30.375Z,51.60
2019-05-19T13:38:59.338Z,51.50
2019-05-19T13:41:28.638Z,51.60
2019-05-19T13:43:59.648Z,51.20
2019-05-19T13:46:29.693Z,51.20
2019-05-19T13:48:58.687Z,50.70
2019-05-19T13:51:27.992Z,50.80
2019-05-19T13:53:57.286Z,50.70
2019-05-19T13:56:26.606Z,50.70
2019-05-19T13:58:56.501Z,50.70
2019-05-19T14:01:28.715Z,51.00
2019-05-19T14:03:56.688Z,50.70
2019-05-19T14:06:26.248Z,50.90
2019-05-19T14:08:55.855Z,50.90
2019-05-19T14:11:26.101Z,50.60
2019-05-19T14:13:55.802Z,50.60
2019-05-19T14:16:25.194Z,50.60
2019-05-19T14:18:54.600Z,50.50
2019-05-19T14:21:23.545Z,50.40
2019-05-19T14:23:52.898Z,50.20
2019-05-19T14:26:22.603Z,50.10
2019-05-19T14:28:51.485Z,50.30
2019-05-19T14:31:20.478Z,50.20
2019-05-19T14:33:49.475Z,50.20
2019-05-19T14:36:18.464Z,50.20
2019-05-19T14:39:05.079Z,50.30
2019-05-19T14:41:33.909Z,50.50
2019-05-19T14:44:03.569Z,50.40
2019-05-19T14:46:32.561Z,50.60
2019-05-19T14:49:01.456Z,50.80
2019-05-19T14:51:30.508Z,50.60
2019-05-19T14:54:00.566Z,50.90
2019-05-19T14:56:29.457Z,51.10
2019-05-19T14:58:58.449Z,51.00
2019-05-19T15:01:27.544Z,51.50
2019-05-19T15:03:56.536Z,51.60
2019-05-19T15:06:26.052Z,51.90
2019-05-19T15:08:55.343Z,52.30
2019-05-19T15:11:24.745Z,52.40
2019-05-19T15:13:54.253Z,52.60
2019-05-19T15:16:24.165Z,53.00
2019-05-19T15:18:54.798Z,53.30
2019-05-19T15:21:24.312Z,53.60
2019-05-19T15:23:53.604Z,53.70
2019-05-19T15:26:22.870Z,53.90
2019-05-19T15:28:52.204Z,54.20
2019-05-19T15:31:21.198Z,54.00
2019-05-19T15:33:50.189Z,54.10
2019-05-19T15:36:19.213Z,54.10
2019-05-19T15:38:48.176Z,54.70
2019-05-19T15:41:17.170Z,54.70
2019-05-19T15:43:46.163Z,54.80
2019-05-19T15:46:18.010Z,54.90
2019-05-19T15:48:45.480Z,55.00
2019-05-19T15:51:14.372Z,55.00
2019-05-19T15:53:43.259Z,55.00
2019-05-19T15:56:12.151Z,55.00
2019-05-19T15:58:41.047Z,55.10
2019-05-19T16:01:10.375Z,55.10
2019-05-19T16:03:39.336Z,55.20
2019-05-19T16:06:08.329Z,55.00
2019-05-19T16:08:37.327Z,55.20
2019-05-19T16:11:06.314Z,55.00
2019-05-19T16:13:35.308Z,54.80
2019-05-19T16:16:04.302Z,55.00
2019-05-19T16:18:33.299Z,55.00
2019-05-19T16:21:02.597Z,55.20
2019-05-19T16:23:31.900Z,55.40
2019-05-19T16:26:01.200Z,55.70
2019-05-19T16:28:31.129Z,55.80
2019-05-19T16:31:00.421Z,56.10
2019-05-19T16:33:29.723Z,56.10
2019-05-19T16:35:58.718Z,56.20
2019-05-19T16:38:29.002Z,56.30
2019-05-19T16:40:57.920Z,56.20
2019-05-19T16:43:30.438Z,56.70
2019-05-19T16:45:59.596Z,56.50
2019-05-19T16:48:28.586Z,56.40
2019-05-19T16:50:57.578Z,56.20
2019-05-19T16:53:26.571Z,56.10
2019-05-19T16:55:55.921Z,56.10
2019-05-19T16:58:26.502Z,56.60
2019-05-19T17:00:57.913Z,56.40
2019-05-19T17:03:26.946Z,56.20
2019-05-19T17:05:56.146Z,56.10
2019-05-19T17:08:25.459Z,56.10
2019-05-19T17:10:55.670Z,55.90
2019-05-19T17:13:24.976Z,56.20
2019-05-19T17:15:54.577Z,56.10
2019-05-19T17:18:24.293Z,56.00
2019-05-19T17:20:55.020Z,56.00
2019-05-19T17:23:24.326Z,56.00
2019-05-19T17:25:54.542Z,56.00
2019-05-19T17:28:23.950Z,55.90
2019-05-19T17:30:55.294Z,56.00
2019-05-19T17:33:24.600Z,56.10
2019-05-19T17:35:54.235Z,56.00
2019-05-19T17:38:24.844Z,56.00
2019-05-19T17:40:54.351Z,56.00
2019-05-19T17:43:23.189Z,55.90
2019-05-19T17:45:52.030Z,56.00
2019-05-19T17:48:26.481Z,56.60
2019-05-19T17:50:53.077Z,55.90
2019-05-19T17:53:22.617Z,55.90
2019-05-19T17:55:52.290Z,55.90
2019-05-19T17:58:21.284Z,55.90
2019-05-19T18:00:50.377Z,55.80
2019-05-19T18:03:19.269Z,55.80
2019-05-19T18:05:48.569Z,55.90
2019-05-19T18:08:17.666Z,55.80
2019-05-19T18:10:46.554Z,55.80
2019-05-19T18:13:15.552Z,55.80
2019-05-19T18:15:45.564Z,55.80
2019-05-19T18:18:14.457Z,55.80
2019-05-19T18:20:43.448Z,55.70
2019-05-19T18:23:12.442Z,55.70
2019-05-19T18:25:41.539Z,55.70
2019-05-19T18:28:10.852Z,55.30
2019-05-19T18:30:40.036Z,55.70
2019-05-19T18:33:09.032Z,55.70
2019-05-19T18:35:38.025Z,55.70
2019-05-19T18:38:07.428Z,55.60
2019-05-19T18:40:36.431Z,55.70
2019-05-19T18:43:05.317Z,55.70
2019-05-19T18:45:40.762Z,55.70
2019-05-19T18:48:11.079Z,55.60
2019-05-19T18:50:40.071Z,55.60
2019-05-19T18:53:10.630Z,55.60
2019-05-19T18:55:40.414Z,55.50
2019-05-19T18:58:09.843Z,55.50
2019-05-19T19:00:39.629Z,55.50
2019-05-19T19:03:10.467Z,55.50
2019-05-19T19:05:39.595Z,55.40
2019-05-19T19:08:10.474Z,55.40
2019-05-19T19:10:40.326Z,55.30
2019-05-19T19:13:10.737Z,55.30
2019-05-19T19:15:43.840Z,55.20
2019-05-19T19:18:14.047Z,55.10
2019-05-19T19:20:43.348Z,55.10
2019-05-19T19:23:12.901Z,55.00
2019-05-19T19:25:43.076Z,54.90
2019-05-19T19:28:12.854Z,54.80
2019-05-19T19:30:43.334Z,54.80
2019-05-19T19:33:12.512Z,54.60
2019-05-19T19:35:42.234Z,54.50
2019-05-19T19:38:11.420Z,54.50
2019-05-19T19:40:40.420Z,54.50
2019-05-19T19:43:09.982Z,54.40
2019-05-19T19:45:40.258Z,54.40
2019-05-19T19:48:09.658Z,54.30
2019-05-19T19:50:38.775Z,54.30
2019-05-19T19:53:08.145Z,54.30
2019-05-19T19:55:37.554Z,54.20
2019-05-19T19:58:06.439Z,54.10
2019-05-19T20:00:38.815Z,54.10
2019-05-19T20:03:08.417Z,54.20
2019-05-19T20:05:38.030Z,54.10
2019-05-19T20:08:07.638Z,54.10
2019-05-19T20:10:39.390Z,54.10
2019-05-19T20:13:10.226Z,54.10
2019-05-19T20:15:39.528Z,54.10
2019-05-19T20:18:08.828Z,54.00
2019-05-19T20:20:38.136Z,54.10
2019-05-19T20:23:07.127Z,54.00
2019-05-19T20:25:37.240Z,54.00
2019-05-19T20:28:06.959Z,54.00
2019-05-19T20:30:36.854Z,54.60
2019-05-19T20:33:05.767Z,53.90
2019-05-19T20:35:35.469Z,53.80
2019-05-19T20:38:05.688Z,53.80
2019-05-19T20:40:34.792Z,53.90
2019-05-19T20:43:03.674Z,54.30
2019-05-19T20:45:33.698Z,53.90
2019-05-19T20:48:02.903Z,54.00
2019-05-19T20:50:31.890Z,54.00
2019-05-19T20:53:00.884Z,54.10
2019-05-19T20:55:30.185Z,54.10
2019-05-19T20:57:59.475Z,54.10
2019-05-19T21:00:28.483Z,54.10
2019-05-19T21:02:57.770Z,54.10
2019-05-19T21:05:27.069Z,54.10
2019-05-19T21:07:56.369Z,54.10
2019-05-19T21:10:26.592Z,54.10
2019-05-19T21:12:57.569Z,54.10
2019-05-19T21:15:27.037Z,54.10
2019-05-19T21:17:56.643Z,54.10
2019-05-19T21:20:25.950Z,54.10
2019-05-19T21:22:55.375Z,54.10
2019-05-19T21:25:24.550Z,54.10
2019-05-19T21:27:54.153Z,54.10
2019-05-19T21:30:24.513Z,54.10
2019-05-19T21:32:53.594Z,54.10
2019-05-19T21:35:22.670Z,54.10
2019-05-19T21:37:51.967Z,54.10
2019-05-19T21:40:21.268Z,54.10
2019-05-19T21:42:50.569Z,54.10
2019-05-19T21:45:21.712Z,54.10
2019-05-19T21:47:50.706Z,54.10
2019-05-19T21:50:19.697Z,54.10
2019-05-19T21:52:48.794Z,54.00
2019-05-19T21:55:20.756Z,54.00
2019-05-19T21:57:50.706Z,54.10
2019-05-19T22:00:21.199Z,54.10
2019-05-19T22:02:51.523Z,54.00
2019-05-19T22:05:20.417Z,54.00
2019-05-19T22:08:09.377Z,54.00
2019-05-19T22:10:38.392Z,54.00
2019-05-19T22:13:07.362Z,54.00
2019-05-19T22:15:36.456Z,54.00
2019-05-19T22:18:06.384Z,54.00
2019-05-19T22:20:35.581Z,54.00
2019-05-19T22:23:06.211Z,54.00
2019-05-19T22:25:36.320Z,53.90
2019-05-19T22:28:07.708Z,53.80
2019-05-19T22:30:37.126Z,53.70
2019-05-19T22:33:06.065Z,53.60
2019-05-19T22:35:35.982Z,53.70
2019-05-19T22:38:05.281Z,53.60
2019-05-19T22:40:34.583Z,53.50
2019-05-19T22:43:03.574Z,53.50
2019-05-19T22:45:33.008Z,53.40
2019-05-19T22:48:02.181Z,53.40
2019-05-19T22:50:31.270Z,53.30
2019-05-19T22:53:00.164Z,53.40
2019-05-19T22:55:29.057Z,53.40
2019-05-19T22:57:58.767Z,53.30
2019-05-19T23:00:28.375Z,53.20
2019-05-19T23:02:58.292Z,53.20
2019-05-19T23:05:27.294Z,53.20
2019-05-19T23:07:56.311Z,53.10
2019-05-19T23:10:25.573Z,53.30
2019-05-19T23:12:55.844Z,53.30
2019-05-19T23:15:25.806Z,53.30
2019-05-19T23:17:55.317Z,53.30
2019-05-19T23:20:26.181Z,53.30
2019-05-19T23:22:56.176Z,53.60
2019-05-19T23:25:25.471Z,54.20
2019-05-19T23:27:56.511Z,55.10
2019-05-19T23:30:26.375Z,55.90
2019-05-19T23:32:55.730Z,56.80
2019-05-19T23:35:27.187Z,57.60
2019-05-19T23:37:57.723Z,58.40
2019-05-19T23:40:27.005Z,58.90
2019-05-19T23:42:56.612Z,58.80
2019-05-19T23:45:30.487Z,58.50
2019-05-19T23:48:00.930Z,58.50
2019-05-19T23:50:31.273Z,58.10
2019-05-19T23:53:00.274Z,57.70
2019-05-19T23:55:29.565Z,57.00
2019-05-19T23:57:58.559Z,56.50
